Time;durP1;ratioP1;P1;durP2;ratioP2;P2;SDS_P1;SDS_P2;PMS_P1;PMS_P2;Temp;Humidity;BMP_temperature;BMP_pressure;BME280_temperature;BME280_humidity;BME280_pressure;Samples;Min_cycle;Max_cycle;Signal;HPM_P1;HPM_P2
2023/08/28 00:02:15;;;;;;;3.47;3.20;;;;;;;23.73;55.31;97815.34;5030456;28;20186;-59
2023/08/28 00:04:41;;;;;;;3.60;3.00;;;;;;;23.73;54.95;97816.19;5030352;28;20565;-58
2023/08/28 00:07:06;;;;;;;3.63;3.20;;;;;;;23.84;55.35;97848.09;5030497;28;20178;-59
2023/08/28 00:09:34;;;;;;;5.10;3.10;;;;;;;23.73;55.74;97823.28;5032667;28;20741;-59
2023/08/28 00:12:00;;;;;;;3.30;3.00;;;;;;;23.59;56.50;97827.72;5032724;28;20259;-59
2023/08/28 00:14:26;;;;;;;3.63;3.33;;;;;;;23.68;56.86;97837.91;5032761;28;20266;-59
2023/08/28 00:16:51;;;;;;;4.95;3.30;;;;;;;23.59;57.12;97826.94;5032655;28;20599;-59
2023/08/28 00:19:17;;;;;;;3.58;2.72;;;;;;;23.48;57.71;97830.16;5032565;28;20209;-59
2023/08/28 00:21:43;;;;;;;3.47;3.08;;;;;;;23.29;59.35;97841.47;5032566;28;20257;-58
2023/08/28 00:24:08;;;;;;;3.08;2.88;;;;;;;23.18;59.63;97821.72;5032369;28;20213;-59
2023/08/28 00:26:34;;;;;;;3.08;2.88;;;;;;;23.18;59.29;97821.72;5032495;28;20254;-58
2023/08/28 00:28:59;;;;;;;5.18;3.13;;;;;;;23.45;57.18;97851.66;5032414;28;20182;-57
2023/08/28 00:31:24;;;;;;;3.38;3.08;;;;;;;23.37;57.25;97822.81;5032362;28;20166;-57
2023/08/28 00:33:50;;;;;;;5.28;3.35;;;;;;;23.48;56.89;97843.38;5032402;28;20205;-57
2023/08/28 00:36:16;;;;;;;4.68;3.08;;;;;;;23.40;56.96;97825.03;5031985;28;20177;-57
2023/08/28 00:38:41;;;;;;;3.58;3.28;;;;;;;23.21;57.30;97810.78;5032262;28;20654;-57
2023/08/28 00:41:07;;;;;;;4.68;3.25;;;;;;;23.44;57.15;97837.66;5032148;28;20178;-58
2023/08/28 00:43:33;;;;;;;3.72;3.40;;;;;;;23.20;57.85;97822.34;5032066;28;20694;-58
2023/08/28 00:45:59;;;;;;;5.68;3.38;;;;;;;23.06;58.35;97803.97;5032159;28;20178;-59
2023/08/28 00:48:25;;;;;;;4.35;3.25;;;;;;;23.09;59.04;97809.69;5031976;28;20185;-58
2023/08/28 00:50:51;;;;;;;3.25;2.92;;;;;;;23.30;59.16;97843.09;5032000;28;20208;-58
2023/08/28 00:53:17;;;;;;;4.35;3.05;;;;;;;23.41;59.11;97845.16;5031898;28;20181;-58
2023/08/28 00:55:43;;;;;;;3.03;2.78;;;;;;;23.26;59.49;97818.91;5029206;28;20218;-58
2023/08/28 00:58:09;;;;;;;5.22;3.00;;;;;;;23.10;59.93;97811.31;5029343;28;20300;-58
2023/08/28 01:00:34;;;;;;;3.53;3.13;;;;;;;23.06;60.80;97833.84;5029299;28;20196;-57
2023/08/28 01:03:00;;;;;;;5.15;3.70;;;;;;;22.85;61.23;97807.56;5029126;28;20185;-57
2023/08/28 01:05:51;;;;;;;3.47;3.13;;;;;;;22.73;62.19;97818.88;5029309;28;20214;-57
2023/08/28 01:08:26;;;;;;;3.88;3.33;;;;;;;22.66;63.43;97828.56;4970277;28;20631;-57
2023/08/28 01:10:57;;;;;;;3.65;3.03;;;;;;;22.48;63.43;97793.97;4969755;28;20259;-57
2023/08/28 01:13:31;;;;;;;3.33;3.00;;;;;;;22.55;63.93;97800.91;4970382;28;20694;-58
2023/08/28 01:15:59;;;;;;;6.13;3.17;;;;;;;22.80;63.66;97825.00;4970293;28;20734;-57
2023/08/28 01:18:26;;;;;;;3.38;3.13;;;;;;;22.93;63.28;97822.41;4970208;28;20187;-58
2023/08/28 01:20:53;;;;;;;3.47;3.17;;;;;;;23.02;62.95;97818.59;4970215;28;20298;-57
2023/08/28 01:23:18;;;;;;;4.80;3.28;;;;;;;23.15;61.09;97816.00;4970009;28;20215;-57
2023/08/28 01:25:44;;;;;;;3.53;3.22;;;;;;;23.12;60.26;97793.47;4972157;28;20191;-58
2023/08/28 01:28:09;;;;;;;4.57;3.15;;;;;;;23.26;59.97;97795.13;4989449;28;20183;-59
2023/08/28 01:30:35;;;;;;;5.55;3.45;;;;;;;23.21;60.06;97780.94;4989527;28;20249;-58
2023/08/28 01:33:00;;;;;;;4.72;3.42;;;;;;;23.27;60.74;97804.72;4989416;28;20222;-57
2023/08/28 01:35:31;;;;;;;3.40;3.10;;;;;;;23.17;61.12;97796.34;4989488;28;20261;-57
2023/08/28 01:38:20;;;;;;;5.80;3.30;;;;;;;23.18;60.76;97805.91;4989351;28;20191;-57
2023/08/28 01:40:53;;;;;;;5.18;2.78;;;;;;;23.09;60.63;97791.22;4989426;28;20191;-58
2023/08/28 01:43:21;;;;;;;7.85;2.92;;;;;;;22.86;60.74;97766.16;4989279;28;20381;-58
2023/08/28 01:45:47;;;;;;;4.25;3.38;;;;;;;22.75;61.95;97769.34;5017546;28;20268;-57
2023/08/28 01:48:13;;;;;;;3.85;3.47;;;;;;;22.58;62.85;97775.97;5031259;28;20189;-58
2023/08/28 01:50:38;;;;;;;5.53;3.45;;;;;;;22.61;63.23;97765.06;5031027;28;20174;-61
2023/08/28 01:53:04;;;;;;;4.07;3.33;;;;;;;22.51;63.78;97764.59;5031006;28;20177;-59
2023/08/28 01:56:06;;;;;;;3.90;3.60;;;;;;;22.53;64.14;97802.94;5028246;28;20190;-59
2023/08/28 01:58:32;;;;;;;5.57;3.10;;;;;;;22.55;62.90;97800.91;5028249;28;20173;-58
2023/08/28 02:00:58;;;;;;;4.18;3.70;;;;;;;22.43;62.91;97781.38;5028361;28;20317;-58
2023/08/28 02:03:24;;;;;;;3.53;3.22;;;;;;;22.39;63.70;97805.66;5028277;28;20221;-58
2023/08/28 02:05:49;;;;;;;4.78;3.38;;;;;;;22.36;63.79;97790.22;5028476;28;20178;-58
2023/08/28 02:08:15;;;;;;;3.45;2.85;;;;;;;22.09;65.94;97777.88;5028586;28;20204;-57
2023/08/28 02:10:40;;;;;;;3.40;3.13;;;;;;;22.18;66.28;97780.19;5028157;28;20298;-58
2023/08/28 02:13:05;;;;;;;4.47;3.30;;;;;;;22.12;65.48;97772.22;5028126;28;20266;-57
2023/08/28 02:15:31;;;;;;;3.92;3.63;;;;;;;22.39;64.50;97805.66;5028243;28;20309;-57
2023/08/28 02:17:56;;;;;;;6.50;3.33;;;;;;;22.42;63.40;97799.97;5028444;28;20535;-57
2023/08/28 02:20:22;;;;;;;4.75;3.38;;;;;;;22.28;64.30;97770.13;5028187;28;20216;-57
2023/08/28 02:22:47;;;;;;;3.42;3.08;;;;;;;22.23;64.32;97761.97;5030041;28;20181;-57
2023/08/28 02:25:12;;;;;;;4.05;3.58;;;;;;;22.16;64.20;97752.38;5032134;28;20256;-57
2023/08/28 02:27:38;;;;;;;4.93;3.28;;;;;;;22.34;64.53;97781.69;5031984;28;20723;-58
2023/08/28 02:30:04;;;;;;;3.63;3.33;;;;;;;22.38;65.20;97772.41;5017729;28;20314;-58
2023/08/28 02:32:29;;;;;;;3.70;3.30;;;;;;;22.30;65.90;97756.72;5018719;28;20651;-58
2023/08/28 02:34:55;;;;;;;3.70;3.40;;;;;;;22.38;63.94;97757.38;5032135;28;20185;-58
2023/08/28 02:37:21;;;;;;;4.13;3.72;;;;;;;22.47;62.94;97768.59;5031921;28;20653;-58
2023/08/28 02:39:46;;;;;;;4.65;3.30;;;;;;;22.48;62.68;97767.59;5012019;28;20209;-59
2023/08/28 02:42:12;;;;;;;3.67;3.38;;;;;;;22.41;62.54;97745.63;5012172;28;20187;-59
2023/08/28 02:44:37;;;;;;;7.68;3.75;;;;;;;22.59;62.51;97782.88;5012065;28;20245;-59
2023/08/28 02:47:04;;;;;;;3.15;2.92;;;;;;;22.35;63.38;97764.84;5012308;28;20190;-59
2023/08/28 02:49:30;;;;;;;4.20;3.53;;;;;;;22.24;64.27;97760.94;5011978;28;20693;-58
2023/08/28 02:51:55;;;;;;;4.43;3.40;;;;;;;22.22;64.68;97765.63;5012048;28;20202;-59
2023/08/28 02:54:20;;;;;;;4.10;3.70;;;;;;;22.06;65.29;97741.38;5012158;28;20371;-59
2023/08/28 02:56:46;;;;;;;3.65;3.38;;;;;;;22.09;65.59;97775.25;5011995;28;20186;-58
2023/08/28 02:59:11;;;;;;;4.75;3.22;;;;;;;22.10;65.72;97767.16;5026474;28;20186;-59
2023/08/28 03:01:36;;;;;;;5.40;3.42;;;;;;;21.93;66.17;97757.09;5031628;28;20217;-59
2023/08/28 03:04:06;;;;;;;4.50;3.58;;;;;;;22.09;66.30;97783.16;5031495;28;20707;-59
2023/08/28 03:06:38;;;;;;;5.00;3.55;;;;;;;21.98;67.46;97770.50;5031513;28;20190;-59
2023/08/28 03:09:04;;;;;;;5.20;3.70;;;;;;;21.93;66.95;97757.09;5031220;28;20193;-58
2023/08/28 03:11:30;;;;;;;3.40;3.08;;;;;;;22.03;67.89;97791.81;5033163;28;20657;-59
2023/08/28 03:13:55;;;;;;;3.28;2.95;;;;;;;22.07;69.30;97790.41;5033594;28;20178;-58
2023/08/28 03:16:21;;;;;;;4.63;3.58;;;;;;;21.88;67.75;97748.94;5033812;28;20216;-58
2023/08/28 03:18:47;;;;;;;4.43;3.70;;;;;;;22.04;67.44;97775.81;5033789;28;20181;-58
2023/08/28 03:21:12;;;;;;;5.28;3.55;;;;;;;22.00;68.57;97757.94;5050917;28;20251;-58
2023/08/28 03:23:38;;;;;;;3.97;3.47;;;;;;;21.75;70.75;97736.50;5051015;28;20707;-58
2023/08/28 03:26:03;;;;;;;4.22;3.42;;;;;;;21.89;70.94;97740.84;5051298;28;20234;-58
2023/08/28 03:28:29;;;;;;;3.50;3.28;;;;;;;22.07;70.39;97766.69;5050993;28;20169;-58
2023/08/28 03:30:57;;;;;;;5.88;3.28;;;;;;;21.94;70.74;97740.28;5051012;28;20575;-58
2023/08/28 03:33:22;;;;;;;4.40;3.45;;;;;;;22.06;70.58;97763.28;5050709;28;20185;-58
2023/08/28 03:35:47;;;;;;;8.10;3.15;;;;;;;22.23;69.75;97764.59;5050477;28;20683;-58
2023/08/28 03:38:13;;;;;;;4.97;3.97;;;;;;;22.12;70.39;97766.94;5050836;28;20177;-58
2023/08/28 03:40:39;;;;;;;3.50;3.20;;;;;;;22.06;69.68;97749.25;5050828;28;20295;-58
2023/08/28 03:43:04;;;;;;;4.50;3.67;;;;;;;22.01;71.22;97764.84;5050691;28;20173;-58
2023/08/28 03:45:30;;;;;;;4.05;3.50;;;;;;;21.65;72.78;97737.78;5050688;28;20230;-58
2023/08/28 03:47:56;;;;;;;5.38;3.63;;;;;;;21.87;71.60;97752.59;5050624;28;20275;-58
2023/08/28 03:50:21;;;;;;;5.28;4.00;;;;;;;21.62;73.41;97751.34;5050641;28;20264;-58
2023/08/28 03:52:46;;;;;;;4.45;3.80;;;;;;;21.58;72.67;97743.00;5037262;28;20605;-58
2023/08/28 03:55:12;;;;;;;7.88;3.60;;;;;;;21.65;72.93;97764.13;5033060;28;20185;-58
2023/08/28 03:57:37;;;;;;;5.45;3.58;;;;;;;21.59;73.47;97763.06;5033041;28;20207;-58
2023/08/28 04:00:07;;;;;;;4.03;3.65;;;;;;;21.69;71.83;97760.94;5032857;28;20254;-58
2023/08/28 04:02:34;;;;;;;4.57;3.85;;;;;;;21.78;70.54;97748.44;5032895;28;20182;-58
2023/08/28 04:05:02;;;;;;;4.05;3.72;;;;;;;21.82;70.21;97740.00;5032829;28;20589;-58
2023/08/28 04:07:28;;;;;;;5.88;3.50;;;;;;;21.96;69.13;97754.09;5032721;28;20185;-58
2023/08/28 04:09:53;;;;;;;4.25;3.63;;;;;;;22.10;68.66;97782.16;5032817;28;20590;-58
2023/08/28 04:12:19;;;;;;;4.25;3.72;;;;;;;22.05;68.48;97771.34;5032721;28;20264;-58
2023/08/28 04:14:44;;;;;;;4.55;3.92;;;;;;;22.13;68.15;97771.19;5032707;28;20593;-58
2023/08/28 04:17:09;;;;;;;4.35;3.95;;;;;;;22.23;67.59;97777.78;5032691;28;20181;-58
2023/08/28 04:19:35;;;;;;;3.72;3.40;;;;;;;22.01;68.31;97760.41;5032607;28;20610;-58
2023/08/28 04:22:01;;;;;;;4.63;3.60;;;;;;;22.35;67.96;97804.41;5032592;28;20185;-58
2023/08/28 04:24:26;;;;;;;4.50;3.97;;;;;;;22.43;67.53;97806.91;5032618;28;20239;-58
2023/08/28 04:26:52;;;;;;;3.50;3.20;;;;;;;22.33;67.49;97770.31;5032531;28;20201;-58
2023/08/28 04:29:17;;;;;;;3.97;3.33;;;;;;;22.60;67.03;97803.00;5032361;28;20185;-58
2023/08/28 04:31:42;;;;;;;5.72;3.83;;;;;;;22.63;66.29;97776.22;5032359;28;20232;-58
2023/08/28 04:34:08;;;;;;;5.40;3.85;;;;;;;22.62;66.02;97771.94;5032296;28;20235;-58
2023/08/28 04:36:33;;;;;;;3.38;3.08;;;;;;;22.88;65.91;97806.34;5032055;28;20244;-58
2023/08/28 04:38:58;;;;;;;4.55;3.70;;;;;;;22.67;66.16;97761.63;5032265;28;20180;-58
2023/08/28 04:41:24;;;;;;;3.42;3.13;;;;;;;22.87;64.84;97776.53;5031944;28;20180;-58
2023/08/28 04:43:49;;;;;;;4.45;4.05;;;;;;;23.02;64.62;97797.50;5032051;28;20190;-58
2023/08/28 04:46:15;;;;;;;5.93;3.90;;;;;;;23.03;63.64;97793.84;5031419;28;20176;-58
2023/08/28 04:48:40;;;;;;;4.88;3.22;;;;;;;22.89;63.47;97771.06;5031760;28;20174;-58
2023/08/28 04:51:06;;;;;;;6.38;4.60;;;;;;;22.90;63.32;97775.31;5031651;28;20668;-58
2023/08/28 04:53:31;;;;;;;7.50;4.25;;;;;;;22.97;63.25;97776.94;5031892;28;20213;-58
2023/08/28 04:55:56;;;;;;;4.28;3.85;;;;;;;22.87;63.07;97757.22;5031925;28;20265;-58
2023/08/28 04:58:22;;;;;;;5.80;3.60;;;;;;;22.95;62.66;97759.72;5031889;28;20174;-58
2023/08/28 05:00:47;;;;;;;3.92;3.63;;;;;;;23.11;62.66;97780.44;5031800;28;20193;-59
2023/08/28 05:03:13;;;;;;;4.18;3.38;;;;;;;23.13;62.67;97784.53;5031703;28;20177;-59
2023/08/28 05:05:39;;;;;;;9.02;3.88;;;;;;;22.99;62.99;97768.84;5032060;28;20652;-59
2023/08/28 05:08:05;;;;;;;5.20;4.55;;;;;;;22.99;62.75;97760.94;5031613;28;20174;-59
2023/08/28 05:10:31;;;;;;;4.80;4.28;;;;;;;22.87;63.05;97749.31;5031582;28;20288;-59
2023/08/28 05:12:56;;;;;;;9.07;3.45;;;;;;;23.01;62.88;97754.44;5031515;28;20184;-59
2023/08/28 05:15:22;;;;;;;7.25;4.45;;;;;;;23.17;62.92;97787.59;5031563;28;20284;-57
2023/08/28 05:17:48;;;;;;;3.97;3.63;;;;;;;23.20;62.90;97787.22;5031394;28;20209;-57
2023/08/28 05:20:13;;;;;;;4.28;3.75;;;;;;;23.14;61.82;97758.94;5031386;28;20181;-57
2023/08/28 05:22:39;;;;;;;6.53;4.03;;;;;;;23.34;62.13;97779.13;5031467;28;20177;-59
2023/08/28 05:25:05;;;;;;;4.20;3.83;;;;;;;23.26;62.50;97778.50;5031314;28;20197;-58
2023/08/28 05:27:30;;;;;;;4.63;3.80;;;;;;;23.24;62.56;97780.53;5031605;28;20273;-59
2023/08/28 05:29:55;;;;;;;4.00;3.70;;;;;;;23.13;62.35;97746.78;5031575;28;20599;-59
2023/08/28 05:32:21;;;;;;;4.95;3.42;;;;;;;23.19;62.74;97756.56;5031278;28;20178;-59
2023/08/28 05:34:46;;;;;;;5.68;3.35;;;;;;;23.41;62.12;97781.78;5028582;28;20583;-59
2023/08/28 05:37:11;;;;;;;7.70;3.75;;;;;;;23.39;62.02;97755.59;5028753;28;20194;-58
2023/08/28 05:39:38;;;;;;;4.47;3.53;;;;;;;23.52;61.78;97778.53;5028693;28;20190;-57
2023/08/28 05:42:04;;;;;;;4.78;3.95;;;;;;;23.37;61.90;97751.53;5028592;28;20185;-57
2023/08/28 05:44:29;;;;;;;4.72;3.25;;;;;;;23.58;62.02;97780.38;5028482;28;20738;-58
2023/08/28 05:46:55;;;;;;;7.32;3.38;;;;;;;23.75;62.14;97787.72;5028363;28;20190;-58
2023/08/28 05:49:20;;;;;;;5.88;4.15;;;;;;;23.63;61.37;97759.47;5028345;28;20343;-58
2023/08/28 05:51:46;;;;;;;5.57;3.45;;;;;;;23.73;61.06;97752.78;5028402;28;20671;-58
2023/08/28 05:54:11;;;;;;;4.80;3.95;;;;;;;23.92;60.70;97766.00;5028322;28;20576;-57
2023/08/28 05:56:36;;;;;;;6.00;3.78;;;;;;;24.08;60.30;97776.16;5028157;28;20287;-58
2023/08/28 05:59:02;;;;;;;3.58;3.25;;;;;;;24.27;59.61;97793.81;5028427;28;20185;-58
2023/08/28 06:01:27;;;;;;;8.50;4.10;;;;;;;24.21;59.37;97762.91;5028607;28;20185;-58
2023/08/28 06:03:56;;;;;;;6.88;3.60;;;;;;;24.43;58.95;97779.38;5028160;28;20264;-58
2023/08/28 06:06:23;;;;;;;3.83;3.45;;;;;;;24.69;58.73;97808.41;5043151;28;20196;-58
2023/08/28 06:08:48;;;;;;;4.90;3.65;;;;;;;24.81;58.29;97794.34;5047925;28;20177;-58
2023/08/28 06:11:14;;;;;;;5.20;3.80;;;;;;;24.89;57.77;97794.09;5048432;28;20188;-58
2023/08/28 06:13:39;;;;;;;4.25;3.85;;;;;;;25.13;57.49;97793.38;5048212;28;20309;-58
2023/08/28 06:16:04;;;;;;;4.97;3.70;;;;;;;25.31;56.46;97795.38;5048159;28;20177;-58
2023/08/28 06:18:30;;;;;;;3.72;3.42;;;;;;;25.33;55.32;97786.19;5034665;28;20221;-58
2023/08/28 06:20:55;;;;;;;8.20;3.92;;;;;;;25.39;55.34;97798.59;5030435;28;20232;-58
2023/08/28 06:23:21;;;;;;;5.65;4.50;;;;;;;25.56;55.84;97807.66;5030659;28;20170;-58
2023/08/28 06:25:47;;;;;;;11.30;5.22;;;;;;;25.66;58.41;97812.47;5030649;28;20185;-58
2023/08/28 06:28:13;;;;;;;11.10;5.68;;;;;;;25.84;58.54;97817.84;5030600;28;20174;-58
2023/08/28 06:30:39;;;;;;;10.07;5.70;;;;;;;25.71;60.64;97792.25;5030609;28;20208;-58
2023/08/28 06:33:04;;;;;;;13.88;6.57;;;;;;;25.70;60.48;97773.91;5030560;28;20261;-58
2023/08/28 06:35:32;;;;;;;13.25;6.15;;;;;;;25.91;60.58;97790.31;5030520;28;20177;-58
2023/08/28 06:37:58;;;;;;;10.07;5.78;;;;;;;26.15;59.31;97797.44;5030529;28;20189;-58
2023/08/28 06:40:23;;;;;;;11.68;6.32;;;;;;;26.04;59.26;97774.28;5030486;28;20596;-58
2023/08/28 06:42:49;;;;;;;10.82;6.20;;;;;;;26.28;58.75;97799.13;5030463;28;20205;-58
2023/08/28 06:45:14;;;;;;;7.80;5.88;;;;;;;26.18;59.59;97794.34;5029173;28;20312;-58
2023/08/28 06:47:40;;;;;;;7.95;5.82;;;;;;;26.34;59.52;97804.41;5030439;28;20304;-58
2023/08/28 06:50:06;;;;;;;6.00;5.50;;;;;;;26.44;59.10;97799.41;5030385;28;20185;-58
2023/08/28 06:52:31;;;;;;;10.55;5.78;;;;;;;26.58;58.65;97806.22;5030622;28;20652;-58
2023/08/28 06:54:56;;;;;;;7.43;5.57;;;;;;;26.61;57.90;97784.56;5030043;28;20186;-58
2023/08/28 06:57:22;;;;;;;12.25;6.25;;;;;;;26.73;57.51;97792.59;5030298;28;20221;-58
2023/08/28 06:59:48;;;;;;;12.63;6.22;;;;;;;26.90;57.26;97794.44;5030599;28;20177;-58
2023/08/28 07:02:14;;;;;;;6.88;6.20;;;;;;;27.07;56.81;97797.28;5029928;28;20177;-59
2023/08/28 07:04:40;;;;;;;7.18;5.82;;;;;;;26.86;55.89;97773.84;5030201;28;20206;-59
2023/08/28 07:07:05;;;;;;;9.77;5.72;;;;;;;27.01;55.60;97768.97;5030208;28;20726;-59
2023/08/28 07:09:31;;;;;;;9.23;6.32;;;;;;;27.26;53.80;97767.84;5031575;28;20587;-59
2023/08/28 07:11:56;;;;;;;7.75;5.93;;;;;;;27.43;53.59;97779.47;5033892;28;20184;-58
2023/08/28 07:14:21;;;;;;;8.38;5.20;;;;;;;27.49;54.14;97772.41;5033801;28;20186;-59
2023/08/28 07:16:47;;;;;;;9.77;5.93;;;;;;;27.37;52.94;97780.38;5033769;28;20261;-59
2023/08/28 07:19:12;;;;;;;10.73;5.57;;;;;;;27.09;53.09;97772.13;5033731;28;20173;-59
2023/08/28 07:21:38;;;;;;;6.97;5.25;;;;;;;27.16;53.66;97777.38;5033738;28;20177;-59
2023/08/28 07:24:03;;;;;;;8.48;5.85;;;;;;;27.12;53.34;97755.72;5033654;28;20209;-59
2023/08/28 07:26:29;;;;;;;9.98;5.00;;;;;;;27.26;52.98;97793.59;5033902;28;20628;-59
2023/08/28 07:28:54;;;;;;;9.88;5.55;;;;;;;27.17;53.10;97792.28;5033526;28;20174;-59
2023/08/28 07:31:20;;;;;;;5.47;4.90;;;;;;;27.15;53.11;97771.22;5033201;28;20636;-58
2023/08/28 07:33:45;;;;;;;5.82;4.72;;;;;;;27.19;52.95;97764.47;5033493;28;20202;-58
2023/08/28 07:36:10;;;;;;;6.45;5.35;;;;;;;27.33;53.38;97779.19;5033478;28;20305;-58
2023/08/28 07:38:36;;;;;;;12.18;5.50;;;;;;;27.57;52.65;97796.81;5033360;28;20216;-58
2023/08/28 07:41:01;;;;;;;9.52;5.43;;;;;;;27.65;51.55;97780.53;5033252;28;20261;-59
2023/08/28 07:43:27;;;;;;;6.50;4.90;;;;;;;27.86;51.35;97811.16;5033195;28;20300;-59
2023/08/28 07:45:52;;;;;;;12.52;5.40;;;;;;;27.91;51.48;97817.41;5033259;28;20174;-57
2023/08/28 07:48:18;;;;;;;9.20;5.30;;;;;;;27.90;51.23;97796.34;5033058;28;20196;-58
2023/08/28 07:50:45;;;;;;;9.68;5.25;;;;;;;28.03;51.00;97799.63;5032877;28;20173;-57
2023/08/28 07:53:10;;;;;;;10.13;5.47;;;;;;;28.28;50.10;97805.53;5033051;28;20678;-58
2023/08/28 07:55:37;;;;;;;19.90;5.38;;;;;;;28.37;49.73;97812.16;5032821;28;20170;-57
2023/08/28 07:58:04;;;;;;;8.55;5.20;;;;;;;28.36;49.74;97804.38;5032891;28;20185;-57
2023/08/28 08:00:34;;;;;;;24.85;6.32;;;;;;;28.29;49.72;97799.16;5032612;28;20730;-57
2023/08/28 08:03:00;;;;;;;9.00;5.30;;;;;;;28.37;49.31;97798.84;5032594;28;20616;-57
2023/08/28 08:05:25;;;;;;;7.28;5.82;;;;;;;28.56;49.19;97813.66;5032809;28;20299;-58
2023/08/28 08:07:51;;;;;;;9.75;5.38;;;;;;;28.73;49.06;97835.03;5032826;28;20182;-58
2023/08/28 08:10:16;;;;;;;5.90;4.75;;;;;;;28.65;48.22;97804.28;5032499;28;20644;-57
2023/08/28 08:12:41;;;;;;;7.20;4.78;;;;;;;28.74;48.06;97826.81;5032709;28;20243;-58
2023/08/28 08:15:07;;;;;;;8.93;4.68;;;;;;;28.62;48.54;97815.38;5032715;28;20648;-58
2023/08/28 08:17:36;;;;;;;5.63;4.88;;;;;;;28.65;48.81;97811.44;5032702;28;20174;-58
2023/08/28 08:20:04;;;;;;;6.00;4.93;;;;;;;28.77;48.08;97826.38;5032434;28;20178;-57
2023/08/28 08:22:30;;;;;;;9.02;5.18;;;;;;;28.87;47.67;97820.44;5032433;28;20182;-58
2023/08/28 08:24:55;;;;;;;9.02;5.35;;;;;;;28.60;47.69;97798.00;5032422;28;20276;-58
2023/08/28 08:27:21;;;;;;;9.73;5.07;;;;;;;28.73;47.72;97793.25;5032505;28;20551;-58
2023/08/28 08:29:46;;;;;;;8.35;4.82;;;;;;;28.90;47.58;97794.16;5032705;28;20178;-58
2023/08/28 08:32:12;;;;;;;9.43;4.97;;;;;;;29.10;47.29;97809.78;5032322;28;20263;-58
2023/08/28 08:34:37;;;;;;;6.07;5.22;;;;;;;28.98;46.75;97801.78;5032375;28;20260;-58
2023/08/28 08:37:02;;;;;;;7.90;4.93;;;;;;;28.90;47.35;97778.16;5032412;28;20181;-59
2023/08/28 08:39:28;;;;;;;5.88;4.78;;;;;;;29.11;46.50;97790.88;5032137;28;20196;-59
2023/08/28 08:41:54;;;;;;;6.20;4.80;;;;;;;29.09;46.73;97763.66;5032129;28;20202;-58
2023/08/28 08:44:19;;;;;;;6.88;5.10;;;;;;;29.15;46.83;97759.25;5031963;28;20251;-57
2023/08/28 08:46:45;;;;;;;7.00;4.78;;;;;;;29.34;46.52;97790.81;5032071;28;20180;-58
2023/08/28 08:49:13;;;;;;;8.57;5.00;;;;;;;29.42;45.85;97798.41;5032007;28;20178;-58
2023/08/28 08:51:42;;;;;;;9.15;4.65;;;;;;;29.21;46.00;97759.06;5031648;28;20567;-58
2023/08/28 08:54:24;;;;;;;5.00;4.50;;;;;;;29.33;45.45;97767.03;5031963;28;20261;-58
2023/08/28 08:56:54;;;;;;;9.60;4.47;;;;;;;29.42;44.82;97761.06;5032136;28;20281;-58
2023/08/28 08:59:21;;;;;;;4.60;3.85;;;;;;;29.57;44.92;97782.69;5031873;28;20228;-58
2023/08/28 09:01:47;;;;;;;12.98;4.95;;;;;;;29.66;44.96;97783.94;5031826;28;20178;-58
2023/08/28 09:04:13;;;;;;;7.10;4.03;;;;;;;29.70;44.65;97768.25;5031645;28;20194;-58
2023/08/28 09:06:40;;;;;;;6.78;4.30;;;;;;;29.81;45.12;97767.38;5031755;28;20667;-58
2023/08/28 09:09:08;;;;;;;5.45;4.43;;;;;;;29.68;43.87;97751.69;5031270;28;20194;-58
2023/08/28 09:11:36;;;;;;;9.73;4.40;;;;;;;29.72;44.29;97756.28;5031586;28;20186;-58
2023/08/28 09:14:01;;;;;;;6.45;4.47;;;;;;;29.74;43.59;97759.53;5031514;28;20532;-58
2023/08/28 09:16:27;;;;;;;5.72;4.13;;;;;;;29.75;44.26;97761.16;5031460;28;20240;-58
2023/08/28 09:18:53;;;;;;;10.73;4.97;;;;;;;29.78;44.75;97749.19;5028840;28;20240;-58
2023/08/28 09:21:19;;;;;;;4.57;4.03;;;;;;;29.89;44.12;97748.28;5028950;28;20186;-58
2023/08/28 09:23:46;;;;;;;6.38;4.10;;;;;;;29.97;43.15;97748.69;5028875;28;20209;-58
2023/08/28 09:26:13;;;;;;;17.17;4.63;;;;;;;29.96;43.70;97748.97;5028913;28;20186;-59
2023/08/28 09:28:39;;;;;;;8.35;4.55;;;;;;;30.08;42.96;97744.34;5028758;28;20246;-59
2023/08/28 09:31:04;;;;;;;11.00;4.32;;;;;;;30.26;43.02;97754.78;5028745;28;20178;-59
2023/08/28 09:33:46;;;;;;;7.57;4.63;;;;;;;30.40;43.05;97756.84;5028150;28;20241;-57
2023/08/28 09:36:16;;;;;;;8.20;4.60;;;;;;;30.45;43.14;97740.91;5028719;28;20198;-58
2023/08/28 09:38:42;;;;;;;6.05;4.32;;;;;;;30.45;42.22;97730.22;5028543;28;20280;-58
2023/08/28 09:41:11;;;;;;;7.15;3.78;;;;;;;30.55;42.89;97746.34;5028637;28;20185;-59
2023/08/28 09:43:37;;;;;;;7.18;4.53;;;;;;;30.61;42.71;97732.00;5028438;28;20841;-58
2023/08/28 09:46:07;;;;;;;8.23;4.68;;;;;;;30.77;42.61;97738.41;5028446;28;20268;-58
2023/08/28 09:48:35;;;;;;;4.65;3.65;;;;;;;30.84;41.53;97733.69;5008635;28;20273;-57
2023/08/28 09:51:06;;;;;;;6.47;4.10;;;;;;;30.76;41.48;97712.72;5027950;28;20236;-58
2023/08/28 09:53:32;;;;;;;11.38;4.50;;;;;;;30.88;41.48;97724.91;5028476;28;20221;-58
2023/08/28 09:55:58;;;;;;;6.93;4.40;;;;;;;30.96;41.38;97727.13;5028449;28;20185;-59
2023/08/28 09:58:26;;;;;;;4.90;4.20;;;;;;;31.06;41.51;97729.91;5028436;28;20194;-58
2023/08/28 10:00:54;;;;;;;4.50;3.80;;;;;;;30.99;41.19;97709.78;5028365;28;20246;-59
2023/08/28 10:03:21;;;;;;;4.63;4.00;;;;;;;31.03;40.71;97695.69;5028551;28;20718;-59
2023/08/28 10:05:47;;;;;;;6.13;3.83;;;;;;;31.28;40.73;97722.69;5028445;28;20235;-58
2023/08/28 10:08:15;;;;;;;5.93;3.97;;;;;;;31.17;40.52;97712.91;5028252;28;20189;-57
2023/08/28 10:10:52;;;;;;;6.10;4.10;;;;;;;31.31;40.64;97716.81;5028275;28;20228;-57
2023/08/28 10:13:21;;;;;;;8.13;3.85;;;;;;;31.40;40.49;97701.94;5028519;28;20699;-58
2023/08/28 10:16:11;;;;;;;4.80;3.53;;;;;;;31.63;40.28;97724.88;5028228;28;20277;-58
2023/08/28 10:19:06;;;;;;;6.07;4.50;;;;;;;31.75;39.66;97715.66;5028516;28;20193;-58
2023/08/28 10:21:33;;;;;;;6.32;4.45;;;;;;;31.70;39.02;97696.84;5026870;28;20197;-58
2023/08/28 10:23:59;;;;;;;4.10;3.58;;;;;;;31.79;38.11;97690.00;5030575;28;20202;-57
2023/08/28 10:26:26;;;;;;;5.03;3.83;;;;;;;31.90;37.71;97696.22;5030657;28;20197;-58
2023/08/28 10:28:52;;;;;;;5.60;4.03;;;;;;;31.90;38.71;97691.69;5030355;28;20173;-58
2023/08/28 10:31:20;;;;;;;4.63;4.15;;;;;;;31.89;38.91;97692.72;5030230;28;20185;-57
2023/08/28 10:33:47;;;;;;;6.57;3.58;;;;;;;31.98;38.47;97703.75;5030598;28;20260;-57
2023/08/28 10:36:15;;;;;;;6.47;3.65;;;;;;;31.99;38.41;97684.00;5030578;28;20197;-58
2023/08/28 10:38:42;;;;;;;4.13;3.80;;;;;;;32.03;38.44;97685.06;5030602;28;20272;-57
2023/08/28 10:41:08;;;;;;;6.38;4.15;;;;;;;32.11;38.82;97682.72;5030474;28;20188;-58
2023/08/28 10:43:34;;;;;;;5.40;3.60;;;;;;;32.19;37.43;97694.81;5030467;28;20703;-58
2023/08/28 10:46:03;;;;;;;4.70;4.13;;;;;;;32.31;37.78;97701.63;5034574;28;20185;-58
2023/08/28 10:48:28;;;;;;;4.13;3.50;;;;;;;32.52;36.71;97683.75;5034356;28;20180;-58
2023/08/28 10:50:57;;;;;;;3.75;3.25;;;;;;;32.78;34.93;97701.56;5034316;28;20338;-58
2023/08/28 10:53:22;;;;;;;7.78;3.40;;;;;;;33.00;35.64;97692.25;5034306;28;20176;-58
2023/08/28 10:55:56;;;;;;;7.00;3.55;;;;;;;33.15;35.33;97684.25;5034285;28;20582;-59
2023/08/28 10:58:22;;;;;;;4.32;3.13;;;;;;;33.43;34.74;97691.00;5034212;28;20224;-59
2023/08/28 11:00:47;;;;;;;3.97;3.58;;;;;;;33.60;33.95;97688.88;5034153;28;20174;-58
2023/08/28 11:03:17;;;;;;;5.53;3.35;;;;;;;33.87;32.64;97692.91;5034035;28;20519;-58
2023/08/28 11:05:44;;;;;;;5.05;3.15;;;;;;;33.94;32.44;97677.34;5034043;28;20559;-59
2023/08/28 11:08:11;;;;;;;5.50;3.15;;;;;;;34.05;31.63;97676.22;5031487;28;20212;-57
2023/08/28 11:10:44;;;;;;;3.30;2.78;;;;;;;34.04;31.24;97663.88;5031180;28;20315;-58
2023/08/28 11:13:18;;;;;;;4.22;2.85;;;;;;;34.31;30.89;97690.44;5031333;28;20190;-58
2023/08/28 11:15:44;;;;;;;5.78;3.00;;;;;;;34.20;30.77;97665.44;5031412;28;20181;-58
2023/08/28 11:18:28;;;;;;;5.88;3.13;;;;;;;34.59;31.73;97696.00;5031252;28;20626;-58
2023/08/28 11:21:06;;;;;;;6.20;3.53;;;;;;;34.61;30.71;97691.13;5031202;28;20178;-58
2023/08/28 11:23:36;;;;;;;4.90;2.97;;;;;;;34.65;30.82;97662.63;5031142;28;20284;-58
2023/08/28 11:26:15;;;;;;;4.20;3.42;;;;;;;34.81;30.86;97648.06;5031174;28;20225;-59
2023/08/28 11:28:47;;;;;;;5.70;3.40;;;;;;;35.20;31.04;97678.47;5011258;28;20318;-59
2023/08/28 11:31:13;;;;;;;6.07;3.15;;;;;;;35.27;30.21;97670.91;5011262;28;20205;-59